This is the latest recevied weather packets stored in our database for station/object GJ7DNI-13. If no packets are shown the sender has not sent any weather packets the latest 10 day(s).
| Time | Temp. | Humidity | Pressure | Rain* | Wind** | Luminosity | Snow |
|---|---|---|---|---|---|---|---|
| 1777810801 | 17.22° C | 70% | 1009 hPa | 0 mm | - | 557 W/m² | - |
| 1777810501 | 17.22° C | 69% | 1009.1 hPa | 0 mm | - | 353 W/m² | - |
| 1777810201 | 17.78° C | 69% | 1009.1 hPa | 0 mm | - | 789 W/m² | - |
| 1777809901 | 17.78° C | 70% | 1009.1 hPa | 0 mm | - | 724 W/m² | - |
| 1777809601 | 16.67° C | 72% | 1009 hPa | 0 mm | - | 840 W/m² | - |
| 1777809301 | 16.67° C | 69% | 1009.1 hPa | 0 mm | - | 810 W/m² | - |
| 1777809001 | 17.22° C | 71% | 1009.1 hPa | 0 mm | - | 796 W/m² | - |
| 1777808701 | 17.22° C | 69% | 1009.1 hPa | 0 mm | - | 795 W/m² | - |
| 1777808401 | 17.22° C | 70% | 1009.1 hPa | 0 mm | - | 786 W/m² | - |
| 1777808101 | 17.78° C | 68% | 1009.1 hPa | 0 mm | - | 788 W/m² | - |
| 1777807801 | 17.78° C | 70% | 1009.1 hPa | 0 mm | - | 782 W/m² | - |
| 1777807501 | 17.22° C | 72% | 1009.1 hPa | 0 mm | - | 780 W/m² | - |
| 1777807201 | 16.67° C | 74% | 1009.1 hPa | 0 mm | - | 780 W/m² | - |
| 1777806901 | 16.67° C | 75% | 1009.1 hPa | 0 mm | - | 782 W/m² | - |
| 1777806601 | 16.11° C | 76% | 1009.2 hPa | 0 mm | - | 789 W/m² | - |
| 1777806301 | 16.67° C | 75% | 1009.2 hPa | 0 mm | - | 786 W/m² | - |
| 1777806001 | 17.22° C | 74% | 1009.3 hPa | 0 mm | - | 773 W/m² | - |
| 1777805701 | 17.22° C | 74% | 1009.3 hPa | 0 mm | - | 763 W/m² | - |
| 1777805401 | 16.67° C | 77% | 1009.4 hPa | 0 mm | - | 747 W/m² | - |
| 1777805101 | 16.11° C | 78% | 1009.5 hPa | 0 mm | - | 749 W/m² | - |
| 1777804801 | 16.11° C | 77% | 1009.5 hPa | 0 mm | - | 761 W/m² | - |
| 1777804501 | 16.11° C | 78% | 1009.5 hPa | 0 mm | - | 635 W/m² | - |
| 1777804201 | 16.11° C | 77% | 1009.4 hPa | 0 mm | - | 714 W/m² | - |
| 1777803901 | 16.11° C | 77% | 1009.4 hPa | 0 mm | - | 596 W/m² | - |
| 1777803601 | 16.67° C | 76% | 1009.4 hPa | 0 mm | - | 754 W/m² | - |
* Rain latest hour (hover to see other rain measurements)
** Current wind speed in m/s (hover to see current wind gust speed)